createdAt,value
2018-02-19T00:01:35.672Z,22.17
2018-02-19T00:04:05.470Z,24.83
2018-02-19T00:06:33.746Z,22.90
2018-02-19T00:09:02.132Z,23.73
2018-02-19T00:11:30.347Z,26.00
2018-02-19T00:13:58.562Z,20.77
2018-02-19T00:16:26.782Z,23.70
2018-02-19T00:18:55.620Z,23.10
2018-02-19T00:21:23.884Z,23.63
2018-02-19T00:23:52.854Z,23.43
2018-02-19T00:26:21.095Z,23.87
2018-02-19T00:28:49.298Z,22.87
2018-02-19T00:31:17.496Z,26.37
2018-02-19T00:33:45.827Z,23.00
2018-02-19T00:36:14.011Z,22.93
2018-02-19T00:38:42.238Z,24.13
2018-02-19T00:41:11.596Z,21.17
2018-02-19T00:43:39.892Z,23.87
2018-02-19T00:46:08.110Z,25.80
2018-02-19T00:48:36.407Z,23.97
2018-02-19T00:51:04.617Z,22.57
2018-02-19T00:53:32.824Z,21.37
2018-02-19T00:56:01.052Z,22.67
2018-02-19T00:58:29.271Z,23.63
2018-02-19T01:00:58.270Z,24.00
2018-02-19T01:03:27.292Z,26.53
2018-02-19T01:05:55.507Z,23.37
2018-02-19T01:08:23.743Z,19.43
2018-02-19T01:10:51.995Z,23.67
2018-02-19T01:13:20.229Z,25.00
2018-02-19T01:15:48.925Z,23.87
2018-02-19T01:18:17.198Z,22.57
2018-02-19T01:20:46.311Z,22.40
2018-02-19T01:23:14.521Z,24.87
2018-02-19T01:25:42.821Z,22.13
2018-02-19T01:28:11.037Z,25.60
2018-02-19T01:30:39.239Z,21.97
2018-02-19T01:33:08.233Z,21.77
2018-02-19T01:35:36.455Z,21.90
2018-02-19T01:38:04.665Z,21.53
2018-02-19T01:40:32.915Z,21.37
2018-02-19T01:43:01.237Z,22.27
2018-02-19T01:45:29.521Z,24.73
2018-02-19T01:47:58.541Z,23.47
2018-02-19T01:50:26.920Z,22.57
2018-02-19T01:52:55.136Z,22.43
2018-02-19T01:55:23.357Z,23.53
2018-02-19T01:57:51.632Z,21.30
2018-02-19T02:00:21.466Z,25.20
2018-02-19T02:02:49.682Z,24.33
2018-02-19T02:05:18.675Z,26.10
2018-02-19T02:07:47.674Z,22.83
2018-02-19T02:10:15.950Z,22.57
2018-02-19T02:12:44.969Z,24.03
2018-02-19T02:15:14.017Z,23.60
2018-02-19T02:17:43.667Z,22.20
2018-02-19T02:20:12.194Z,21.67
2018-02-19T02:22:40.464Z,24.00
2018-02-19T02:25:08.684Z,25.93
2018-02-19T02:27:36.889Z,25.10
2018-02-19T02:30:05.174Z,23.57
2018-02-19T02:32:34.194Z,24.17
2018-02-19T02:35:02.398Z,23.90
2018-02-19T02:37:30.619Z,25.73
2018-02-19T02:39:58.858Z,23.23
2018-02-19T02:42:27.067Z,25.17
2018-02-19T02:44:55.279Z,28.17
2018-02-19T02:47:23.516Z,24.07
2018-02-19T02:49:52.509Z,23.67
2018-02-19T02:52:21.503Z,24.07
2018-02-19T02:54:50.472Z,27.77
2018-02-19T02:57:20.163Z,28.00
2018-02-19T02:59:48.464Z,24.03
2018-02-19T03:02:16.791Z,31.43
2018-02-19T03:04:45.231Z,27.60
2018-02-19T03:07:13.519Z,28.63
2018-02-19T03:09:42.487Z,26.43
2018-02-19T03:12:10.689Z,29.77
2018-02-19T03:14:39.666Z,26.63
2018-02-19T03:17:08.759Z,27.53
2018-02-19T03:19:37.391Z,25.80
2018-02-19T03:22:05.596Z,25.33
2018-02-19T03:24:33.807Z,26.60
2018-02-19T03:27:02.780Z,24.63
2018-02-19T03:29:30.982Z,27.00
2018-02-19T03:32:00.872Z,25.23
2018-02-19T03:34:30.642Z,27.20
2018-02-19T03:36:58.892Z,25.73
2018-02-19T03:39:27.879Z,26.03
2018-02-19T03:41:56.846Z,29.00
2018-02-19T03:44:25.077Z,27.53
2018-02-19T03:46:53.289Z,28.00
2018-02-19T03:49:22.296Z,27.47
2018-02-19T03:51:50.498Z,26.93
2018-02-19T03:54:19.500Z,27.27
2018-02-19T03:56:47.796Z,26.90
2018-02-19T03:59:16.022Z,30.07
2018-02-19T04:01:44.222Z,28.13
2018-02-19T04:04:12.452Z,26.97
2018-02-19T04:06:41.260Z,27.17
2018-02-19T04:09:09.434Z,30.37
2018-02-19T04:11:38.491Z,30.67
2018-02-19T04:14:06.689Z,30.00
2018-02-19T04:16:34.908Z,30.43
2018-02-19T04:19:03.871Z,28.17
2018-02-19T04:21:32.071Z,28.07
2018-02-19T04:24:00.287Z,26.70
2018-02-19T04:26:28.494Z,30.13
2018-02-19T04:28:56.703Z,29.40
2018-02-19T04:31:26.835Z,28.30
2018-02-19T04:33:56.295Z,29.20
2018-02-19T04:36:25.877Z,28.33
2018-02-19T04:38:54.661Z,29.83
2018-02-19T04:41:23.289Z,28.87
2018-02-19T04:43:52.101Z,30.90
2018-02-19T04:46:28.267Z,29.87
2018-02-19T04:49:01.002Z,29.73
2018-02-19T04:51:29.687Z,29.80
2018-02-19T04:53:59.212Z,32.37
2018-02-19T04:56:28.485Z,28.13
2018-02-19T04:58:56.857Z,31.60
2018-02-19T05:01:25.072Z,28.97
2018-02-19T05:03:53.316Z,30.73
2018-02-19T05:06:21.529Z,32.37
2018-02-19T05:08:50.540Z,34.17
2018-02-19T05:11:19.570Z,29.67
2018-02-19T05:13:48.525Z,31.00
2018-02-19T05:16:17.516Z,29.90
2018-02-19T05:18:45.864Z,32.97
2018-02-19T05:21:14.087Z,31.63
2018-02-19T05:23:42.346Z,30.20
2018-02-19T05:26:10.669Z,31.40
2018-02-19T05:28:38.878Z,31.63
2018-02-19T05:31:07.082Z,31.43
2018-02-19T05:33:35.339Z,32.30
2018-02-19T05:36:03.863Z,31.33
2018-02-19T05:38:32.060Z,29.80
2018-02-19T05:41:00.260Z,31.57
2018-02-19T05:43:28.462Z,28.63
2018-02-19T05:45:56.682Z,31.60
2018-02-19T05:48:24.910Z,30.93
2018-02-19T05:50:53.910Z,32.17
2018-02-19T05:53:22.108Z,30.37
2018-02-19T05:55:50.339Z,31.77
2018-02-19T05:58:18.554Z,33.40
2018-02-19T06:00:47.524Z,32.20
2018-02-19T06:03:16.504Z,32.17
2018-02-19T06:05:44.729Z,33.23
2018-02-19T06:08:12.974Z,31.07
2018-02-19T06:10:41.298Z,34.50
2018-02-19T06:13:09.501Z,30.87
2018-02-19T06:15:37.738Z,31.60
2018-02-19T06:18:05.946Z,33.50
2018-02-19T06:20:34.144Z,32.33
2018-02-19T06:23:02.391Z,34.93
2018-02-19T06:25:30.599Z,34.03
2018-02-19T06:27:58.827Z,32.77
2018-02-19T06:30:27.059Z,32.67
2018-02-19T06:32:56.049Z,33.10
2018-02-19T06:35:24.375Z,34.27
2018-02-19T06:37:52.587Z,37.70
2018-02-19T06:40:20.795Z,32.13
2018-02-19T06:42:51.369Z,34.50
2018-02-19T06:45:19.631Z,35.33
2018-02-19T06:47:47.995Z,34.23
2018-02-19T06:50:16.209Z,33.00
2018-02-19T06:52:44.439Z,33.40
2018-02-19T06:55:13.395Z,34.90
2018-02-19T06:57:41.611Z,31.27
2018-02-19T07:00:10.603Z,31.43
2018-02-19T07:02:40.283Z,32.10
2018-02-19T07:05:08.522Z,30.67
2018-02-19T07:07:36.745Z,32.27
2018-02-19T07:10:04.960Z,39.83
2018-02-19T07:12:33.199Z,33.70
2018-02-19T07:15:02.462Z,32.77
2018-02-19T07:17:30.696Z,32.17
2018-02-19T07:19:59.828Z,34.63
2018-02-19T07:22:28.049Z,33.23
2018-02-19T07:24:57.104Z,35.57
2018-02-19T07:27:25.346Z,34.40
2018-02-19T07:29:54.304Z,32.13
2018-02-19T07:32:22.649Z,32.33
2018-02-19T07:34:50.844Z,31.87
2018-02-19T07:37:19.049Z,30.10
2018-02-19T07:39:48.028Z,32.77
2018-02-19T07:42:17.771Z,32.63
2018-02-19T07:44:46.763Z,33.70
2018-02-19T07:47:15.012Z,34.10
2018-02-19T07:49:43.247Z,32.57
2018-02-19T07:52:11.468Z,31.57
2018-02-19T07:54:40.459Z,33.03
2018-02-19T07:57:08.674Z,34.37
2018-02-19T07:59:36.897Z,34.57
2018-02-19T08:02:05.245Z,35.53
2018-02-19T08:04:33.495Z,34.27
2018-02-19T08:07:01.706Z,33.30
2018-02-19T08:09:29.971Z,32.47
2018-02-19T08:11:58.196Z,40.67
2018-02-19T08:14:27.222Z,33.17
2018-02-19T08:16:55.623Z,34.13
2018-02-19T08:19:23.841Z,63.03
2018-02-19T08:21:52.097Z,38.87
2018-02-19T08:24:20.383Z,31.20
2018-02-19T08:26:48.595Z,38.27
2018-02-19T08:29:17.585Z,32.33
2018-02-19T08:31:46.562Z,35.80
2018-02-19T08:34:16.711Z,33.97
2018-02-19T08:36:44.939Z,32.23
2018-02-19T08:39:13.335Z,35.67
2018-02-19T08:41:41.560Z,31.93
2018-02-19T08:44:09.775Z,36.67
2018-02-19T08:46:38.043Z,33.07
2018-02-19T08:49:06.257Z,33.30
2018-02-19T08:51:35.231Z,34.13
2018-02-19T08:54:03.488Z,34.33
2018-02-19T08:56:31.712Z,33.57
2018-02-19T08:59:00.692Z,36.07
2018-02-19T09:01:29.666Z,37.20
2018-02-19T09:03:57.904Z,39.20
2018-02-19T09:06:26.116Z,37.73
2018-02-19T09:08:55.097Z,33.97
2018-02-19T09:11:23.320Z,38.33
2018-02-19T09:13:52.287Z,34.20
2018-02-19T09:16:20.528Z,39.03
2018-02-19T09:18:48.919Z,40.30
2018-02-19T09:21:17.148Z,38.27
2018-02-19T09:23:46.124Z,43.23
2018-02-19T09:26:15.228Z,43.87
2018-02-19T09:28:43.758Z,123.17
2018-02-19T09:31:11.986Z,33.13
2018-02-19T09:33:40.944Z,36.30
2018-02-19T09:36:09.186Z,35.57
2018-02-19T09:38:37.396Z,33.10
2018-02-19T09:41:05.612Z,35.60
2018-02-19T09:43:34.676Z,33.57
2018-02-19T09:46:03.687Z,31.20
2018-02-19T09:48:31.990Z,37.37
2018-02-19T09:51:00.987Z,33.40
2018-02-19T09:53:30.006Z,32.80
2018-02-19T09:55:58.236Z,33.57
2018-02-19T09:58:27.230Z,34.93
2018-02-19T10:00:56.310Z,37.03
2018-02-19T10:03:25.093Z,32.07
2018-02-19T10:05:53.338Z,31.70
2018-02-19T10:08:21.560Z,39.30
2018-02-19T10:10:49.797Z,38.33
2018-02-19T10:13:18.020Z,35.70
2018-02-19T10:15:47.011Z,35.30
2018-02-19T10:18:16.077Z,36.40
2018-02-19T10:20:44.337Z,38.13
2018-02-19T10:23:12.557Z,32.37
2018-02-19T10:25:41.545Z,38.07
2018-02-19T10:28:09.768Z,38.67
2018-02-19T10:30:38.533Z,37.40
2018-02-19T10:33:08.346Z,35.40
2018-02-19T10:35:37.367Z,43.03
2018-02-19T10:38:05.561Z,36.30
2018-02-19T10:40:33.771Z,37.33
2018-02-19T10:43:02.012Z,37.67
2018-02-19T10:45:30.270Z,38.13
2018-02-19T10:47:58.474Z,37.83
2018-02-19T10:50:26.673Z,36.40
2018-02-19T10:52:54.908Z,38.43
2018-02-19T10:55:23.104Z,39.87
2018-02-19T10:57:51.350Z,38.00
2018-02-19T11:00:25.242Z,38.20
2018-02-19T11:02:54.262Z,34.80
2018-02-19T11:05:22.637Z,33.50
2018-02-19T11:07:51.029Z,34.77
2018-02-19T11:10:19.295Z,34.67
2018-02-19T11:12:47.534Z,32.87
2018-02-19T11:15:16.554Z,33.80
2018-02-19T11:17:45.730Z,37.97
2018-02-19T11:20:13.963Z,36.23
2018-02-19T11:22:42.189Z,38.37
2018-02-19T11:25:11.760Z,36.80
2018-02-19T11:27:40.178Z,36.47
2018-02-19T11:30:09.152Z,39.40
2018-02-19T11:32:38.131Z,37.43
2018-02-19T11:35:07.098Z,38.80
2018-02-19T11:37:35.308Z,35.50
2018-02-19T11:40:03.532Z,32.43
2018-02-19T11:42:31.754Z,35.67
2018-02-19T11:44:59.946Z,34.73
2018-02-19T11:47:28.915Z,35.07
2018-02-19T11:49:57.126Z,36.90
2018-02-19T11:52:26.129Z,41.23
2018-02-19T11:54:55.146Z,37.60
2018-02-19T11:57:23.358Z,41.40
2018-02-19T11:59:51.611Z,36.63
2018-02-19T12:02:19.830Z,36.97
2018-02-19T12:04:48.839Z,35.93
2018-02-19T12:07:17.814Z,39.07
2018-02-19T12:09:46.019Z,37.17
2018-02-19T12:12:14.246Z,38.20
2018-02-19T12:14:42.467Z,39.87
2018-02-19T12:17:10.725Z,42.57
2018-02-19T12:19:39.689Z,41.47
2018-02-19T12:22:07.953Z,38.43
2018-02-19T12:24:36.179Z,36.00
2018-02-19T12:27:05.157Z,46.30
2018-02-19T12:29:34.153Z,34.63
2018-02-19T12:32:03.164Z,38.70
2018-02-19T12:34:32.159Z,37.97
2018-02-19T12:37:01.119Z,42.27
2018-02-19T12:39:29.322Z,38.00
2018-02-19T12:41:57.597Z,39.20
2018-02-19T12:44:26.576Z,41.43
2018-02-19T12:46:54.797Z,42.23
2018-02-19T12:49:22.985Z,37.87
2018-02-19T12:51:51.246Z,37.67
2018-02-19T12:54:19.482Z,36.50
2018-02-19T12:56:47.708Z,38.37
2018-02-19T12:59:15.940Z,33.73
2018-02-19T13:01:44.138Z,38.80
2018-02-19T13:04:13.097Z,36.90
2018-02-19T13:06:42.092Z,38.77
2018-02-19T13:09:10.306Z,35.70
2018-02-19T13:11:38.521Z,31.60
2018-02-19T13:14:06.745Z,32.47
2018-02-19T13:16:35.760Z,44.23
2018-02-19T13:19:04.006Z,36.47
2018-02-19T13:21:32.204Z,34.03
2018-02-19T13:24:00.415Z,31.73
2018-02-19T13:26:28.633Z,34.63
2018-02-19T13:28:57.595Z,35.97
2018-02-19T13:31:26.228Z,32.97
2018-02-19T13:33:55.350Z,35.23
2018-02-19T13:36:23.598Z,36.57
2018-02-19T13:38:52.579Z,34.83
2018-02-19T13:41:21.681Z,34.83
2018-02-19T13:43:50.672Z,36.03
2018-02-19T13:46:19.691Z,36.67
2018-02-19T13:48:47.938Z,36.50
2018-02-19T13:51:17.653Z,33.13
2018-02-19T13:53:46.650Z,34.40
2018-02-19T13:56:15.612Z,37.63
2018-02-19T13:58:43.806Z,36.07
2018-02-19T14:01:12.035Z,32.83
2018-02-19T14:03:40.296Z,35.63
2018-02-19T14:06:08.563Z,32.90
2018-02-19T14:08:37.549Z,37.50
2018-02-19T14:11:06.528Z,39.77
2018-02-19T14:13:35.683Z,37.27
2018-02-19T14:16:03.949Z,36.03
2018-02-19T14:18:32.155Z,34.00
2018-02-19T14:21:00.368Z,38.40
2018-02-19T14:23:28.662Z,33.17
2018-02-19T14:25:57.483Z,34.60
2018-02-19T14:28:25.717Z,31.67
2018-02-19T14:30:54.838Z,37.10
2018-02-19T14:33:23.052Z,32.67
2018-02-19T14:35:51.257Z,37.57
2018-02-19T14:38:20.253Z,33.40
2018-02-19T14:40:49.225Z,33.40
2018-02-19T14:43:17.414Z,33.17
2018-02-19T14:45:45.730Z,34.20
2018-02-19T14:48:14.102Z,32.97
2018-02-19T14:50:42.356Z,36.90
2018-02-19T14:53:11.327Z,35.63
2018-02-19T14:55:39.536Z,38.67
2018-02-19T14:58:08.726Z,32.23
2018-02-19T15:00:37.694Z,35.40
2018-02-19T15:03:05.900Z,33.13
2018-02-19T15:05:34.913Z,35.33
2018-02-19T15:08:03.126Z,31.90
2018-02-19T15:10:31.351Z,34.77
2018-02-19T15:12:59.557Z,31.43
2018-02-19T15:15:28.617Z,35.87
2018-02-19T15:17:56.831Z,31.23
2018-02-19T15:20:25.089Z,34.83
2018-02-19T15:22:53.305Z,35.30
2018-02-19T15:25:21.528Z,32.00
2018-02-19T15:27:49.767Z,34.10
2018-02-19T15:30:17.975Z,31.97
2018-02-19T15:32:46.354Z,32.77
2018-02-19T15:35:15.372Z,32.77
2018-02-19T15:37:43.658Z,30.20
2018-02-19T15:40:11.848Z,29.97
2018-02-19T15:42:40.048Z,30.17
2018-02-19T15:45:08.247Z,28.67
2018-02-19T15:47:36.557Z,30.63
2018-02-19T15:50:04.841Z,30.97
2018-02-19T15:52:33.044Z,34.40
2018-02-19T15:55:01.339Z,30.47
2018-02-19T15:57:29.658Z,32.93
2018-02-19T15:59:57.968Z,31.77
2018-02-19T16:02:26.209Z,33.33
2018-02-19T16:04:54.408Z,29.70
2018-02-19T16:07:22.771Z,32.43
2018-02-19T16:09:51.032Z,31.47
2018-02-19T16:12:19.288Z,28.67
2018-02-19T16:14:47.570Z,30.70
2018-02-19T16:17:16.635Z,31.50
2018-02-19T16:19:45.002Z,29.07
2018-02-19T16:22:13.426Z,29.33
2018-02-19T16:24:42.288Z,34.30
2018-02-19T16:27:10.533Z,28.30
2018-02-19T16:29:38.918Z,28.77
2018-02-19T16:32:07.286Z,32.43
2018-02-19T16:34:35.671Z,28.50
2018-02-19T16:37:03.968Z,33.43
2018-02-19T16:39:32.247Z,30.80
2018-02-19T16:42:00.706Z,33.57
2018-02-19T16:44:28.946Z,33.37
2018-02-19T16:46:57.227Z,33.87
2018-02-19T16:49:25.642Z,32.27
2018-02-19T16:51:54.938Z,30.53
2018-02-19T16:54:23.219Z,31.77
2018-02-19T16:56:51.609Z,32.60
2018-02-19T16:59:21.311Z,31.23
2018-02-19T17:01:49.791Z,32.63
2018-02-19T17:04:18.100Z,31.67
2018-02-19T17:06:46.658Z,33.40
2018-02-19T17:09:15.957Z,37.87
2018-02-19T17:11:45.099Z,36.97
2018-02-19T17:14:15.071Z,36.10
2018-02-19T17:16:43.374Z,39.83
2018-02-19T17:19:11.701Z,34.00
2018-02-19T17:21:40.113Z,33.70
2018-02-19T17:24:08.467Z,37.90
2018-02-19T17:26:36.781Z,36.73
2018-02-19T17:29:05.084Z,38.10
2018-02-19T17:31:33.416Z,34.13
2018-02-19T17:34:01.815Z,34.57
2018-02-19T17:36:30.049Z,36.33
2018-02-19T17:38:59.162Z,33.60
2018-02-19T17:41:27.488Z,32.03
2018-02-19T17:43:55.943Z,33.57
2018-02-19T17:46:24.253Z,30.40
2018-02-19T17:48:52.596Z,31.17
2018-02-19T17:51:20.958Z,34.87
2018-02-19T17:53:49.214Z,34.70
2018-02-19T17:56:18.396Z,34.90
2018-02-19T17:58:46.748Z,31.23
2018-02-19T18:01:15.971Z,33.90
2018-02-19T18:03:45.231Z,35.40
2018-02-19T18:06:13.493Z,36.20
2018-02-19T18:08:42.092Z,32.17
2018-02-19T18:11:10.316Z,35.60
2018-02-19T18:13:39.458Z,35.00
2018-02-19T18:16:07.747Z,33.27
2018-02-19T18:18:36.184Z,31.63
2018-02-19T18:21:04.813Z,32.90
2018-02-19T18:23:33.036Z,33.57
2018-02-19T18:26:02.510Z,31.03
2018-02-19T18:28:31.182Z,34.17
2018-02-19T18:30:59.470Z,32.20
2018-02-19T18:33:27.800Z,33.67
2018-02-19T18:35:56.623Z,32.23
2018-02-19T18:38:24.986Z,32.80
2018-02-19T18:40:53.262Z,32.97
2018-02-19T18:43:21.516Z,32.37
2018-02-19T18:45:49.783Z,32.80
2018-02-19T18:48:18.867Z,32.37
2018-02-19T18:50:47.132Z,33.57
2018-02-19T18:53:15.488Z,31.27
2018-02-19T18:55:44.072Z,32.43
2018-02-19T18:58:12.502Z,32.97
2018-02-19T19:00:41.510Z,35.40
2018-02-19T19:03:09.749Z,35.30
2018-02-19T19:05:39.618Z,42.03
2018-02-19T19:08:19.878Z,37.63
2018-02-19T19:10:53.047Z,47.60
2018-02-19T19:13:22.339Z,39.27
2018-02-19T19:15:50.770Z,37.80
2018-02-19T19:18:19.048Z,39.00
2018-02-19T19:20:48.349Z,37.87
2018-02-19T19:23:16.601Z,37.10
2018-02-19T19:25:44.860Z,41.30
2018-02-19T19:28:13.295Z,43.20
2018-02-19T19:30:42.455Z,39.97
2018-02-19T19:33:10.766Z,41.83
2018-02-19T19:35:39.007Z,38.27
2018-02-19T19:38:08.014Z,36.43
2018-02-19T19:40:36.958Z,36.93
2018-02-19T19:43:05.324Z,34.43
2018-02-19T19:45:35.065Z,36.20
2018-02-19T19:48:04.218Z,34.03
2018-02-19T19:50:32.805Z,37.93
2018-02-19T19:53:01.114Z,33.87
2018-02-19T19:55:30.213Z,34.20
2018-02-19T19:57:58.462Z,32.53
2018-02-19T20:00:26.739Z,34.50
2018-02-19T20:02:55.983Z,32.30
2018-02-19T20:05:24.384Z,34.13
2018-02-19T20:07:52.684Z,36.73
2018-02-19T20:10:21.301Z,32.47
2018-02-19T20:12:49.555Z,35.40
2018-02-19T20:15:17.773Z,33.70
2018-02-19T20:17:46.390Z,34.23
2018-02-19T20:20:14.650Z,35.57
2018-02-19T20:22:42.947Z,34.83
2018-02-19T20:25:11.337Z,39.37
2018-02-19T20:27:40.674Z,40.67
2018-02-19T20:30:10.020Z,46.30
2018-02-19T20:32:38.427Z,44.67
2018-02-19T20:35:06.907Z,42.80
2018-02-19T20:37:36.087Z,45.13
2018-02-19T20:40:04.481Z,48.97
2018-02-19T20:42:32.780Z,43.73
2018-02-19T20:45:01.156Z,42.77
2018-02-19T20:47:29.429Z,43.07
2018-02-19T20:49:58.507Z,41.03
2018-02-19T20:52:27.002Z,45.10
2018-02-19T20:54:56.815Z,42.03
2018-02-19T20:57:25.066Z,47.33
2018-02-19T20:59:53.542Z,45.70
2018-02-19T21:02:22.236Z,46.83
2018-02-19T21:04:50.576Z,49.07
2018-02-19T21:07:18.911Z,44.80
2018-02-19T21:09:47.209Z,51.60
2018-02-19T21:12:16.282Z,47.40
2018-02-19T21:14:44.578Z,49.00
2018-02-19T21:17:12.889Z,50.07
2018-02-19T21:19:42.048Z,53.93
2018-02-19T21:22:10.932Z,47.83
2018-02-19T21:24:39.220Z,53.13
2018-02-19T21:27:07.463Z,52.07
2018-02-19T21:29:35.797Z,53.40
2018-02-19T21:32:06.753Z,51.60
2018-02-19T21:34:35.412Z,57.13
2018-02-19T21:37:03.634Z,54.93
2018-02-19T21:39:32.942Z,60.90
2018-02-19T21:42:01.319Z,59.83
2018-02-19T21:44:30.366Z,58.67
2018-02-19T21:46:58.615Z,52.60
2018-02-19T21:49:27.683Z,56.07
2018-02-19T21:51:55.977Z,61.50
2018-02-19T21:54:24.220Z,58.53
2018-02-19T21:56:53.573Z,58.87
2018-02-19T21:59:21.849Z,54.43
2018-02-19T22:01:50.274Z,55.60
2018-02-19T22:04:19.431Z,54.13
2018-02-19T22:06:48.522Z,55.93
2018-02-19T22:09:16.920Z,58.90
2018-02-19T22:11:45.277Z,61.10
2018-02-19T22:14:13.555Z,54.27
2018-02-19T22:16:41.807Z,53.70
2018-02-19T22:19:10.032Z,50.63
2018-02-19T22:21:38.493Z,48.60
2018-02-19T22:24:06.735Z,45.97
2018-02-19T22:26:34.963Z,50.57
2018-02-19T22:29:03.199Z,52.87
2018-02-19T22:31:31.475Z,49.23
2018-02-19T22:33:59.761Z,56.50
2018-02-19T22:36:28.051Z,56.53
2018-02-19T22:38:56.915Z,65.00
2018-02-19T22:41:25.157Z,62.63
2018-02-19T22:43:53.533Z,63.90
2018-02-19T22:46:22.703Z,69.43
2018-02-19T22:48:50.982Z,63.40
2018-02-19T22:51:19.352Z,57.07
2018-02-19T22:53:48.254Z,64.07
2018-02-19T22:56:16.820Z,58.67
2018-02-19T22:58:45.093Z,53.70
2018-02-19T23:01:14.332Z,53.43
2018-02-19T23:03:42.592Z,56.47
2018-02-19T23:06:10.865Z,61.17
2018-02-19T23:08:39.243Z,57.23
2018-02-19T23:11:07.505Z,57.37
2018-02-19T23:13:35.826Z,60.03
2018-02-19T23:16:04.032Z,63.30
2018-02-19T23:18:33.064Z,58.60
2018-02-19T23:21:01.341Z,54.10
2018-02-19T23:23:30.144Z,61.63
2018-02-19T23:25:58.430Z,62.80
2018-02-19T23:28:26.801Z,66.53
2018-02-19T23:30:55.192Z,67.03
2018-02-19T23:33:23.443Z,64.87
2018-02-19T23:35:51.802Z,65.97
2018-02-19T23:38:20.433Z,62.83
2018-02-19T23:40:48.692Z,69.90
2018-02-19T23:43:17.809Z,59.43
2018-02-19T23:45:46.072Z,56.10
2018-02-19T23:48:14.351Z,60.80
2018-02-19T23:50:43.590Z,59.90
2018-02-19T23:53:12.744Z,64.40
2018-02-19T23:55:41.092Z,52.43
2018-02-19T23:58:10.151Z,59.87
